Terminal Aerodrome Forecast
Issued by NWS Sioux Falls, SD

Home | Current Version | Previous Version | Text Only | Print | Product List | Glossary Off
Versions: 1 2 3 4 5 6 7 8 9 10 11 12 13 14

000
FTUS43 KFSD 220144 AAA
TAFSUX
TAF AMD
KSUX 220144Z 2202/2224 18009KT P6SM VCTS SCT070CB
     FM220300 16007KT P6SM SCT070
     FM220500 16007KT P6SM SCT070 WS013/21040KT
     FM221200 16007KT P6SM FEW200
     FM221800 18009KT P6SM BKN110
     FM221900 22011KT P6SM BKN060
     FM222000 35015G23KT P6SM BKN040=

USA.gov is the U.S. government's official web portal to all federal, state and local government web resources and services.